Αρχική σελίδα
METAR-TAF:

METAR-TAF

Αεροδρόμια :

Emporia Municipal Airport

Emporia, Κάνσας, Ηνωμένες Πολιτείες Αμερικής

γεωγραφικό πλάτος: 38-19-44N, γεωγραφικό μήκος: 096-11-38W, υψόμετρο: 367 μ

Παρών καιρός

Η αναφορά έγινε 12 λεπτά πριν, στις 12:53 UTC
Άνεμος 4 kt από Δ/ΝΔ
Θερμοκρασία -1°C
Υγρασία 64%
Πίεση 1023 hPa
Ορατότητα: 16.1 χλμ
Καθαρός ουρανός

METAR: KEMP 161253Z AUTO 25004KT 10SM CLR M01/M07 A3022 RMK AO2 SLP244 T10111072

Χρόνος: 07:05 (13:05 UTC)


TAF: λείπει

Μετεωρολογικές αναφορές και προγνώσεις για περισσότερα από 4000 αεροδρόμια (δελτία METAR και TAF).

Οι διαθέσιμοι σταθμοί απεικονίζονται στο χάρτη με κίτρινες και κόκκινες κουκκίδες.

Μετακινήστε το ποντίκι πάνω από τις κουκκίδες για να δείτε το όνομα του σταθμού.

Στη συνέχεια, κάντε κλικ για να δείτε τις μετεωρολογικές αναφορές και τις προγνώσεις καιρού.

Για να αλλάξετε το χάρτη: κάντε κλικ στα πράσινα κουμπιά με τον μαύρο σταυρό για να ζουμάρετε, στο πράσινο κουμπί με την παύλα για να αφαιρέσετε το ζουμ ή στα πράσινα βέλη για να αντιπαραβάλλετε χάρτες.


METAR-TAF: